sensor_id;sensor_type;location;lat;lon;timestamp;P1;durP1;ratioP1;P2;durP2;ratioP2
14294;SDS011;7231;59.370;18.016;2023-07-13T00:01:21;3.92;;;3.17;;
14294;SDS011;7231;59.370;18.016;2023-07-13T00:03:50;3.70;;;3.13;;
14294;SDS011;7231;59.370;18.016;2023-07-13T00:06:18;4.88;;;3.13;;
14294;SDS011;7231;59.370;18.016;2023-07-13T00:08:47;3.80;;;3.40;;
14294;SDS011;7231;59.370;18.016;2023-07-13T00:11:16;4.40;;;3.33;;
14294;SDS011;7231;59.370;18.016;2023-07-13T00:13:45;4.28;;;3.42;;
14294;SDS011;7231;59.370;18.016;2023-07-13T00:16:14;4.97;;;4.00;;
14294;SDS011;7231;59.370;18.016;2023-07-13T00:18:42;5.53;;;3.92;;
14294;SDS011;7231;59.370;18.016;2023-07-13T00:21:11;5.03;;;4.20;;
14294;SDS011;7231;59.370;18.016;2023-07-13T00:23:40;5.90;;;3.95;;
14294;SDS011;7231;59.370;18.016;2023-07-13T00:26:10;5.47;;;4.18;;
14294;SDS011;7231;59.370;18.016;2023-07-13T00:28:40;4.70;;;4.10;;
14294;SDS011;7231;59.370;18.016;2023-07-13T00:31:08;4.35;;;3.95;;
14294;SDS011;7231;59.370;18.016;2023-07-13T00:33:39;4.45;;;4.05;;
14294;SDS011;7231;59.370;18.016;2023-07-13T00:36:08;4.63;;;4.20;;
14294;SDS011;7231;59.370;18.016;2023-07-13T00:38:38;6.43;;;4.60;;
14294;SDS011;7231;59.370;18.016;2023-07-13T00:41:06;7.13;;;4.47;;
14294;SDS011;7231;59.370;18.016;2023-07-13T00:43:34;4.18;;;3.80;;
14294;SDS011;7231;59.370;18.016;2023-07-13T00:46:19;5.53;;;3.95;;
14294;SDS011;7231;59.370;18.016;2023-07-13T00:48:51;4.05;;;3.72;;
14294;SDS011;7231;59.370;18.016;2023-07-13T00:51:22;5.40;;;3.20;;
14294;SDS011;7231;59.370;18.016;2023-07-13T00:53:55;4.00;;;3.70;;
14294;SDS011;7231;59.370;18.016;2023-07-13T00:56:26;4.03;;;3.45;;
14294;SDS011;7231;59.370;18.016;2023-07-13T00:58:56;5.70;;;3.90;;
14294;SDS011;7231;59.370;18.016;2023-07-13T01:01:25;3.92;;;3.53;;
14294;SDS011;7231;59.370;18.016;2023-07-13T01:03:55;6.88;;;3.47;;
14294;SDS011;7231;59.370;18.016;2023-07-13T01:06:23;5.50;;;3.60;;
14294;SDS011;7231;59.370;18.016;2023-07-13T01:08:52;4.30;;;3.53;;
14294;SDS011;7231;59.370;18.016;2023-07-13T01:11:20;5.90;;;4.10;;
14294;SDS011;7231;59.370;18.016;2023-07-13T01:13:49;4.00;;;3.60;;
14294;SDS011;7231;59.370;18.016;2023-07-13T01:16:19;5.00;;;3.60;;
14294;SDS011;7231;59.370;18.016;2023-07-13T01:18:52;4.40;;;3.28;;
14294;SDS011;7231;59.370;18.016;2023-07-13T01:21:21;5.50;;;3.88;;
14294;SDS011;7231;59.370;18.016;2023-07-13T01:23:50;4.05;;;3.65;;
14294;SDS011;7231;59.370;18.016;2023-07-13T01:26:18;5.85;;;4.22;;
14294;SDS011;7231;59.370;18.016;2023-07-13T01:28:46;6.28;;;3.78;;
14294;SDS011;7231;59.370;18.016;2023-07-13T01:31:15;3.90;;;3.58;;
14294;SDS011;7231;59.370;18.016;2023-07-13T01:33:43;4.43;;;3.97;;
14294;SDS011;7231;59.370;18.016;2023-07-13T01:36:11;5.55;;;3.65;;
14294;SDS011;7231;59.370;18.016;2023-07-13T01:38:41;4.03;;;3.13;;
14294;SDS011;7231;59.370;18.016;2023-07-13T01:41:10;5.32;;;3.15;;
14294;SDS011;7231;59.370;18.016;2023-07-13T01:43:39;4.47;;;3.38;;
14294;SDS011;7231;59.370;18.016;2023-07-13T01:46:07;3.25;;;2.95;;
14294;SDS011;7231;59.370;18.016;2023-07-13T01:48:42;3.97;;;3.35;;
14294;SDS011;7231;59.370;18.016;2023-07-13T01:51:10;4.38;;;3.42;;
14294;SDS011;7231;59.370;18.016;2023-07-13T01:53:39;4.05;;;3.22;;
14294;SDS011;7231;59.370;18.016;2023-07-13T01:56:09;5.32;;;3.30;;
14294;SDS011;7231;59.370;18.016;2023-07-13T01:58:38;6.75;;;3.70;;
14294;SDS011;7231;59.370;18.016;2023-07-13T02:01:06;6.15;;;3.10;;
14294;SDS011;7231;59.370;18.016;2023-07-13T02:03:34;5.38;;;3.53;;
14294;SDS011;7231;59.370;18.016;2023-07-13T02:06:03;4.18;;;3.35;;
14294;SDS011;7231;59.370;18.016;2023-07-13T02:08:31;4.90;;;3.35;;
14294;SDS011;7231;59.370;18.016;2023-07-13T02:11:02;5.03;;;3.63;;
14294;SDS011;7231;59.370;18.016;2023-07-13T02:13:30;6.00;;;3.50;;
14294;SDS011;7231;59.370;18.016;2023-07-13T02:15:59;4.97;;;3.30;;
14294;SDS011;7231;59.370;18.016;2023-07-13T02:18:27;5.13;;;4.00;;
14294;SDS011;7231;59.370;18.016;2023-07-13T02:20:55;5.93;;;3.72;;
14294;SDS011;7231;59.370;18.016;2023-07-13T02:23:23;5.45;;;3.80;;
14294;SDS011;7231;59.370;18.016;2023-07-13T02:25:54;4.50;;;4.10;;
14294;SDS011;7231;59.370;18.016;2023-07-13T02:28:24;7.43;;;4.00;;
14294;SDS011;7231;59.370;18.016;2023-07-13T02:30:53;7.13;;;3.92;;
14294;SDS011;7231;59.370;18.016;2023-07-13T02:33:21;5.97;;;4.40;;
14294;SDS011;7231;59.370;18.016;2023-07-13T02:35:49;7.25;;;4.50;;
14294;SDS011;7231;59.370;18.016;2023-07-13T02:38:18;7.47;;;4.47;;
14294;SDS011;7231;59.370;18.016;2023-07-13T02:40:46;4.65;;;4.15;;
14294;SDS011;7231;59.370;18.016;2023-07-13T02:43:15;6.88;;;4.30;;
14294;SDS011;7231;59.370;18.016;2023-07-13T02:45:44;7.32;;;4.25;;
14294;SDS011;7231;59.370;18.016;2023-07-13T02:48:13;5.10;;;4.28;;
14294;SDS011;7231;59.370;18.016;2023-07-13T02:50:42;4.57;;;4.15;;
14294;SDS011;7231;59.370;18.016;2023-07-13T02:53:11;5.50;;;4.22;;
14294;SDS011;7231;59.370;18.016;2023-07-13T02:55:39;6.07;;;4.45;;
14294;SDS011;7231;59.370;18.016;2023-07-13T02:58:13;6.43;;;4.32;;
14294;SDS011;7231;59.370;18.016;2023-07-13T03:00:45;8.05;;;4.65;;
14294;SDS011;7231;59.370;18.016;2023-07-13T03:03:14;7.47;;;4.47;;
14294;SDS011;7231;59.370;18.016;2023-07-13T03:05:44;7.22;;;4.57;;
14294;SDS011;7231;59.370;18.016;2023-07-13T03:08:17;8.65;;;5.22;;
14294;SDS011;7231;59.370;18.016;2023-07-13T03:10:45;5.32;;;4.30;;
14294;SDS011;7231;59.370;18.016;2023-07-13T03:13:13;6.70;;;4.55;;
14294;SDS011;7231;59.370;18.016;2023-07-13T03:15:42;7.95;;;4.40;;
14294;SDS011;7231;59.370;18.016;2023-07-13T03:18:11;6.13;;;5.10;;
14294;SDS011;7231;59.370;18.016;2023-07-13T03:20:39;7.72;;;4.28;;
14294;SDS011;7231;59.370;18.016;2023-07-13T03:23:08;7.15;;;4.88;;
14294;SDS011;7231;59.370;18.016;2023-07-13T03:25:36;8.05;;;4.85;;
14294;SDS011;7231;59.370;18.016;2023-07-13T03:28:04;6.85;;;4.35;;
14294;SDS011;7231;59.370;18.016;2023-07-13T03:30:32;6.10;;;3.97;;
14294;SDS011;7231;59.370;18.016;2023-07-13T03:33:00;6.80;;;4.22;;
14294;SDS011;7231;59.370;18.016;2023-07-13T03:35:32;7.60;;;4.10;;
14294;SDS011;7231;59.370;18.016;2023-07-13T03:38:03;6.55;;;4.20;;
14294;SDS011;7231;59.370;18.016;2023-07-13T03:40:31;4.00;;;3.60;;
14294;SDS011;7231;59.370;18.016;2023-07-13T03:42:59;4.97;;;3.72;;
14294;SDS011;7231;59.370;18.016;2023-07-13T03:45:29;6.97;;;3.70;;
14294;SDS011;7231;59.370;18.016;2023-07-13T03:47:57;6.63;;;4.35;;
14294;SDS011;7231;59.370;18.016;2023-07-13T03:50:25;4.15;;;3.70;;
14294;SDS011;7231;59.370;18.016;2023-07-13T03:52:55;6.30;;;3.50;;
14294;SDS011;7231;59.370;18.016;2023-07-13T03:55:23;7.72;;;3.83;;
14294;SDS011;7231;59.370;18.016;2023-07-13T03:57:57;3.67;;;3.38;;
14294;SDS011;7231;59.370;18.016;2023-07-13T04:00:27;5.38;;;3.78;;
14294;SDS011;7231;59.370;18.016;2023-07-13T04:02:55;7.30;;;3.85;;
14294;SDS011;7231;59.370;18.016;2023-07-13T04:05:23;8.68;;;3.88;;
14294;SDS011;7231;59.370;18.016;2023-07-13T04:07:51;4.20;;;3.65;;
14294;SDS011;7231;59.370;18.016;2023-07-13T04:10:21;4.85;;;3.38;;
14294;SDS011;7231;59.370;18.016;2023-07-13T04:12:49;3.72;;;3.40;;
14294;SDS011;7231;59.370;18.016;2023-07-13T04:15:17;7.57;;;3.67;;
14294;SDS011;7231;59.370;18.016;2023-07-13T04:17:46;5.82;;;3.13;;
14294;SDS011;7231;59.370;18.016;2023-07-13T04:20:14;7.70;;;3.30;;
14294;SDS011;7231;59.370;18.016;2023-07-13T04:22:42;5.55;;;3.35;;
14294;SDS011;7231;59.370;18.016;2023-07-13T04:25:10;4.40;;;3.20;;
14294;SDS011;7231;59.370;18.016;2023-07-13T04:27:40;6.88;;;3.25;;
14294;SDS011;7231;59.370;18.016;2023-07-13T04:30:09;5.60;;;3.33;;
14294;SDS011;7231;59.370;18.016;2023-07-13T04:32:37;5.70;;;2.78;;
14294;SDS011;7231;59.370;18.016;2023-07-13T04:35:06;3.13;;;2.65;;
14294;SDS011;7231;59.370;18.016;2023-07-13T04:37:35;3.35;;;2.63;;
14294;SDS011;7231;59.370;18.016;2023-07-13T04:40:03;7.00;;;3.30;;
14294;SDS011;7231;59.370;18.016;2023-07-13T04:42:32;6.78;;;3.13;;
14294;SDS011;7231;59.370;18.016;2023-07-13T04:45:02;8.10;;;3.25;;
14294;SDS011;7231;59.370;18.016;2023-07-13T04:47:31;4.05;;;2.90;;
14294;SDS011;7231;59.370;18.016;2023-07-13T04:49:59;3.78;;;2.80;;
14294;SDS011;7231;59.370;18.016;2023-07-13T04:52:28;4.82;;;2.90;;
14294;SDS011;7231;59.370;18.016;2023-07-13T04:54:56;9.88;;;3.22;;
14294;SDS011;7231;59.370;18.016;2023-07-13T04:57:24;4.63;;;3.00;;
14294;SDS011;7231;59.370;18.016;2023-07-13T04:59:52;9.27;;;3.08;;
14294;SDS011;7231;59.370;18.016;2023-07-13T05:02:22;7.13;;;2.97;;
14294;SDS011;7231;59.370;18.016;2023-07-13T05:04:50;3.35;;;2.45;;
14294;SDS011;7231;59.370;18.016;2023-07-13T05:07:18;4.18;;;2.72;;
14294;SDS011;7231;59.370;18.016;2023-07-13T05:09:46;5.13;;;2.75;;
14294;SDS011;7231;59.370;18.016;2023-07-13T05:12:15;4.55;;;2.47;;
14294;SDS011;7231;59.370;18.016;2023-07-13T05:14:43;7.47;;;2.50;;
14294;SDS011;7231;59.370;18.016;2023-07-13T05:17:11;3.05;;;2.33;;
14294;SDS011;7231;59.370;18.016;2023-07-13T05:19:41;8.02;;;2.35;;
14294;SDS011;7231;59.370;18.016;2023-07-13T05:22:09;7.32;;;2.50;;
14294;SDS011;7231;59.370;18.016;2023-07-13T05:24:38;4.80;;;2.45;;
14294;SDS011;7231;59.370;18.016;2023-07-13T05:27:06;5.25;;;2.20;;
14294;SDS011;7231;59.370;18.016;2023-07-13T05:29:34;2.95;;;2.05;;
14294;SDS011;7231;59.370;18.016;2023-07-13T05:32:03;3.35;;;2.20;;
14294;SDS011;7231;59.370;18.016;2023-07-13T05:34:31;4.13;;;2.25;;
14294;SDS011;7231;59.370;18.016;2023-07-13T05:37:01;5.10;;;2.50;;
14294;SDS011;7231;59.370;18.016;2023-07-13T05:39:29;5.25;;;2.47;;
14294;SDS011;7231;59.370;18.016;2023-07-13T05:41:58;9.80;;;2.63;;
14294;SDS011;7231;59.370;18.016;2023-07-13T05:44:26;3.33;;;2.10;;
14294;SDS011;7231;59.370;18.016;2023-07-13T05:46:54;5.40;;;2.25;;
14294;SDS011;7231;59.370;18.016;2023-07-13T05:49:23;6.78;;;2.67;;
14294;SDS011;7231;59.370;18.016;2023-07-13T05:51:51;4.00;;;2.17;;
14294;SDS011;7231;59.370;18.016;2023-07-13T05:54:21;5.88;;;2.05;;
14294;SDS011;7231;59.370;18.016;2023-07-13T05:56:49;6.97;;;2.65;;
14294;SDS011;7231;59.370;18.016;2023-07-13T05:59:17;5.05;;;2.30;;
14294;SDS011;7231;59.370;18.016;2023-07-13T06:01:45;5.25;;;2.33;;
14294;SDS011;7231;59.370;18.016;2023-07-13T06:04:14;3.35;;;1.70;;
14294;SDS011;7231;59.370;18.016;2023-07-13T06:06:42;4.55;;;2.20;;
14294;SDS011;7231;59.370;18.016;2023-07-13T06:09:10;6.30;;;2.03;;
14294;SDS011;7231;59.370;18.016;2023-07-13T06:11:40;6.28;;;2.25;;
14294;SDS011;7231;59.370;18.016;2023-07-13T06:14:08;4.15;;;2.03;;
14294;SDS011;7231;59.370;18.016;2023-07-13T06:16:36;4.90;;;2.08;;
14294;SDS011;7231;59.370;18.016;2023-07-13T06:19:04;6.20;;;2.10;;
14294;SDS011;7231;59.370;18.016;2023-07-13T06:21:33;2.88;;;1.60;;
14294;SDS011;7231;59.370;18.016;2023-07-13T06:24:01;3.72;;;1.90;;
14294;SDS011;7231;59.370;18.016;2023-07-13T06:26:29;4.22;;;1.85;;
14294;SDS011;7231;59.370;18.016;2023-07-13T06:29:00;4.10;;;1.80;;
14294;SDS011;7231;59.370;18.016;2023-07-13T06:31:28;4.88;;;1.90;;
14294;SDS011;7231;59.370;18.016;2023-07-13T06:33:56;6.50;;;1.73;;
14294;SDS011;7231;59.370;18.016;2023-07-13T06:36:25;4.07;;;1.88;;
14294;SDS011;7231;59.370;18.016;2023-07-13T06:38:53;6.25;;;1.80;;
14294;SDS011;7231;59.370;18.016;2023-07-13T06:41:21;6.20;;;1.77;;
14294;SDS011;7231;59.370;18.016;2023-07-13T06:43:52;4.63;;;1.85;;
14294;SDS011;7231;59.370;18.016;2023-07-13T06:46:22;5.82;;;2.17;;
14294;SDS011;7231;59.370;18.016;2023-07-13T06:48:51;4.30;;;1.60;;
14294;SDS011;7231;59.370;18.016;2023-07-13T06:51:19;4.75;;;1.92;;
14294;SDS011;7231;59.370;18.016;2023-07-13T06:53:47;5.75;;;2.08;;
14294;SDS011;7231;59.370;18.016;2023-07-13T06:56:16;6.00;;;1.98;;
14294;SDS011;7231;59.370;18.016;2023-07-13T06:58:44;5.32;;;1.85;;
14294;SDS011;7231;59.370;18.016;2023-07-13T07:01:12;4.30;;;1.58;;
14294;SDS011;7231;59.370;18.016;2023-07-13T07:03:43;4.60;;;2.25;;
14294;SDS011;7231;59.370;18.016;2023-07-13T07:06:12;3.80;;;1.48;;
14294;SDS011;7231;59.370;18.016;2023-07-13T07:08:43;3.65;;;1.65;;
14294;SDS011;7231;59.370;18.016;2023-07-13T07:11:13;5.28;;;1.70;;
14294;SDS011;7231;59.370;18.016;2023-07-13T07:13:42;5.78;;;2.03;;
14294;SDS011;7231;59.370;18.016;2023-07-13T07:16:10;4.32;;;1.50;;
14294;SDS011;7231;59.370;18.016;2023-07-13T07:18:39;5.97;;;1.98;;
14294;SDS011;7231;59.370;18.016;2023-07-13T07:21:09;6.43;;;1.80;;
14294;SDS011;7231;59.370;18.016;2023-07-13T07:23:38;4.97;;;2.05;;
14294;SDS011;7231;59.370;18.016;2023-07-13T07:26:06;5.72;;;1.73;;
14294;SDS011;7231;59.370;18.016;2023-07-13T07:28:36;7.68;;;2.17;;
14294;SDS011;7231;59.370;18.016;2023-07-13T07:31:08;5.28;;;1.35;;
14294;SDS011;7231;59.370;18.016;2023-07-13T07:33:39;2.35;;;1.40;;
14294;SDS011;7231;59.370;18.016;2023-07-13T07:36:09;2.95;;;1.40;;
14294;SDS011;7231;59.370;18.016;2023-07-13T07:38:41;3.63;;;1.65;;
14294;SDS011;7231;59.370;18.016;2023-07-13T07:41:09;3.75;;;1.52;;
14294;SDS011;7231;59.370;18.016;2023-07-13T07:43:41;3.13;;;1.10;;
14294;SDS011;7231;59.370;18.016;2023-07-13T07:46:09;5.47;;;1.60;;
14294;SDS011;7231;59.370;18.016;2023-07-13T07:48:37;6.10;;;2.00;;
14294;SDS011;7231;59.370;18.016;2023-07-13T07:51:05;1.88;;;1.40;;
14294;SDS011;7231;59.370;18.016;2023-07-13T07:53:35;3.42;;;1.55;;
14294;SDS011;7231;59.370;18.016;2023-07-13T07:56:03;7.60;;;1.27;;
14294;SDS011;7231;59.370;18.016;2023-07-13T07:58:51;4.38;;;1.33;;
14294;SDS011;7231;59.370;18.016;2023-07-13T08:01:23;2.65;;;1.33;;
14294;SDS011;7231;59.370;18.016;2023-07-13T08:03:54;5.75;;;2.08;;
14294;SDS011;7231;59.370;18.016;2023-07-13T08:06:25;2.67;;;1.20;;
14294;SDS011;7231;59.370;18.016;2023-07-13T08:09:12;5.15;;;1.52;;
14294;SDS011;7231;59.370;18.016;2023-07-13T08:11:40;5.07;;;1.40;;
14294;SDS011;7231;59.370;18.016;2023-07-13T08:14:11;5.57;;;1.20;;
14294;SDS011;7231;59.370;18.016;2023-07-13T08:16:40;4.18;;;1.30;;
14294;SDS011;7231;59.370;18.016;2023-07-13T08:19:08;2.58;;;1.17;;
14294;SDS011;7231;59.370;18.016;2023-07-13T08:21:37;3.03;;;1.10;;
14294;SDS011;7231;59.370;18.016;2023-07-13T08:24:06;4.60;;;1.33;;
14294;SDS011;7231;59.370;18.016;2023-07-13T08:26:35;5.15;;;1.50;;
14294;SDS011;7231;59.370;18.016;2023-07-13T08:29:04;2.45;;;1.02;;
14294;SDS011;7231;59.370;18.016;2023-07-13T08:31:32;5.78;;;1.23;;
14294;SDS011;7231;59.370;18.016;2023-07-13T08:34:00;4.05;;;1.30;;
14294;SDS011;7231;59.370;18.016;2023-07-13T08:36:29;4.00;;;1.50;;
14294;SDS011;7231;59.370;18.016;2023-07-13T08:38:57;3.80;;;1.52;;
14294;SDS011;7231;59.370;18.016;2023-07-13T08:41:25;4.18;;;1.50;;
14294;SDS011;7231;59.370;18.016;2023-07-13T08:43:56;2.47;;;1.23;;
14294;SDS011;7231;59.370;18.016;2023-07-13T08:46:28;4.57;;;1.17;;
14294;SDS011;7231;59.370;18.016;2023-07-13T08:49:03;3.90;;;1.20;;
14294;SDS011;7231;59.370;18.016;2023-07-13T08:51:38;2.13;;;1.23;;
14294;SDS011;7231;59.370;18.016;2023-07-13T08:54:14;2.15;;;0.93;;
14294;SDS011;7231;59.370;18.016;2023-07-13T08:56:47;4.60;;;1.38;;
14294;SDS011;7231;59.370;18.016;2023-07-13T08:59:21;1.42;;;1.00;;
14294;SDS011;7231;59.370;18.016;2023-07-13T09:01:59;2.70;;;1.30;;
14294;SDS011;7231;59.370;18.016;2023-07-13T09:04:35;1.90;;;1.05;;
14294;SDS011;7231;59.370;18.016;2023-07-13T09:07:11;4.15;;;1.23;;
14294;SDS011;7231;59.370;18.016;2023-07-13T09:09:49;2.13;;;1.10;;
14294;SDS011;7231;59.370;18.016;2023-07-13T09:12:27;2.53;;;1.05;;
14294;SDS011;7231;59.370;18.016;2023-07-13T09:15:03;2.55;;;1.40;;
14294;SDS011;7231;59.370;18.016;2023-07-13T09:17:33;3.38;;;1.10;;
14294;SDS011;7231;59.370;18.016;2023-07-13T09:20:10;2.75;;;1.15;;
14294;SDS011;7231;59.370;18.016;2023-07-13T09:22:49;3.45;;;1.00;;
14294;SDS011;7231;59.370;18.016;2023-07-13T09:25:21;2.53;;;1.48;;
14294;SDS011;7231;59.370;18.016;2023-07-13T09:27:55;4.13;;;1.20;;
14294;SDS011;7231;59.370;18.016;2023-07-13T09:30:31;3.30;;;1.00;;
14294;SDS011;7231;59.370;18.016;2023-07-13T09:33:04;4.95;;;1.67;;
14294;SDS011;7231;59.370;18.016;2023-07-13T09:35:34;3.75;;;1.30;;
14294;SDS011;7231;59.370;18.016;2023-07-13T09:38:04;4.07;;;1.30;;
14294;SDS011;7231;59.370;18.016;2023-07-13T09:40:53;2.92;;;0.82;;
14294;SDS011;7231;59.370;18.016;2023-07-13T09:43:27;3.60;;;1.30;;
14294;SDS011;7231;59.370;18.016;2023-07-13T09:45:57;4.00;;;1.42;;
14294;SDS011;7231;59.370;18.016;2023-07-13T09:48:26;6.45;;;1.30;;
14294;SDS011;7231;59.370;18.016;2023-07-13T09:51:06;3.47;;;1.38;;
14294;SDS011;7231;59.370;18.016;2023-07-13T09:53:42;3.75;;;1.40;;
14294;SDS011;7231;59.370;18.016;2023-07-13T09:56:21;4.55;;;1.67;;
14294;SDS011;7231;59.370;18.016;2023-07-13T09:58:50;5.03;;;1.25;;
14294;SDS011;7231;59.370;18.016;2023-07-13T10:01:32;3.25;;;1.13;;
14294;SDS011;7231;59.370;18.016;2023-07-13T10:04:02;5.18;;;1.65;;
14294;SDS011;7231;59.370;18.016;2023-07-13T10:06:39;3.10;;;1.10;;
14294;SDS011;7231;59.370;18.016;2023-07-13T10:09:09;3.88;;;1.13;;
14294;SDS011;7231;59.370;18.016;2023-07-13T10:11:42;4.80;;;1.27;;
14294;SDS011;7231;59.370;18.016;2023-07-13T10:14:11;4.50;;;1.10;;
14294;SDS011;7231;59.370;18.016;2023-07-13T10:16:44;4.35;;;1.30;;
14294;SDS011;7231;59.370;18.016;2023-07-13T10:19:17;4.47;;;1.42;;
14294;SDS011;7231;59.370;18.016;2023-07-13T10:21:50;3.85;;;1.20;;
14294;SDS011;7231;59.370;18.016;2023-07-13T10:24:22;2.60;;;1.20;;
14294;SDS011;7231;59.370;18.016;2023-07-13T10:26:53;4.60;;;1.10;;
14294;SDS011;7231;59.370;18.016;2023-07-13T10:29:25;2.53;;;1.02;;
14294;SDS011;7231;59.370;18.016;2023-07-13T10:31:58;2.13;;;1.02;;
14294;SDS011;7231;59.370;18.016;2023-07-13T10:34:26;2.60;;;1.00;;
14294;SDS011;7231;59.370;18.016;2023-07-13T10:36:55;3.15;;;1.00;;
14294;SDS011;7231;59.370;18.016;2023-07-13T10:39:24;3.65;;;1.17;;
14294;SDS011;7231;59.370;18.016;2023-07-13T10:41:55;1.48;;;0.88;;
14294;SDS011;7231;59.370;18.016;2023-07-13T10:44:29;5.15;;;1.20;;
14294;SDS011;7231;59.370;18.016;2023-07-13T10:47:01;4.13;;;1.25;;
14294;SDS011;7231;59.370;18.016;2023-07-13T10:49:33;4.65;;;1.30;;
14294;SDS011;7231;59.370;18.016;2023-07-13T10:52:03;4.40;;;1.30;;
14294;SDS011;7231;59.370;18.016;2023-07-13T10:54:32;2.63;;;1.13;;
14294;SDS011;7231;59.370;18.016;2023-07-13T10:57:12;2.28;;;0.88;;
14294;SDS011;7231;59.370;18.016;2023-07-13T10:59:46;1.80;;;1.00;;
14294;SDS011;7231;59.370;18.016;2023-07-13T11:02:23;3.22;;;1.02;;
14294;SDS011;7231;59.370;18.016;2023-07-13T11:04:55;6.30;;;1.42;;
14294;SDS011;7231;59.370;18.016;2023-07-13T11:07:25;2.40;;;1.05;;
14294;SDS011;7231;59.370;18.016;2023-07-13T11:09:56;2.05;;;0.90;;
14294;SDS011;7231;59.370;18.016;2023-07-13T11:15:27;1.98;;;1.00;;
14294;SDS011;7231;59.370;18.016;2023-07-13T11:18:04;4.13;;;1.45;;
14294;SDS011;7231;59.370;18.016;2023-07-13T11:20:33;5.03;;;1.15;;
14294;SDS011;7231;59.370;18.016;2023-07-13T11:25:59;2.53;;;1.00;;
14294;SDS011;7231;59.370;18.016;2023-07-13T11:28:30;6.20;;;1.40;;
14294;SDS011;7231;59.370;18.016;2023-07-13T11:31:01;2.40;;;1.00;;
14294;SDS011;7231;59.370;18.016;2023-07-13T11:33:55;3.75;;;1.02;;
14294;SDS011;7231;59.370;18.016;2023-07-13T11:36:29;3.85;;;1.10;;
14294;SDS011;7231;59.370;18.016;2023-07-13T11:39:01;4.78;;;1.20;;
14294;SDS011;7231;59.370;18.016;2023-07-13T11:41:34;5.00;;;1.27;;
14294;SDS011;7231;59.370;18.016;2023-07-13T11:44:11;2.88;;;0.90;;
14294;SDS011;7231;59.370;18.016;2023-07-13T11:46:44;3.33;;;1.05;;
14294;SDS011;7231;59.370;18.016;2023-07-13T11:49:20;5.65;;;1.45;;
14294;SDS011;7231;59.370;18.016;2023-07-13T11:51:50;4.25;;;0.90;;
14294;SDS011;7231;59.370;18.016;2023-07-13T11:54:25;6.93;;;1.20;;
14294;SDS011;7231;59.370;18.016;2023-07-13T11:56:57;2.35;;;0.88;;
14294;SDS011;7231;59.370;18.016;2023-07-13T11:59:29;5.78;;;1.35;;
14294;SDS011;7231;59.370;18.016;2023-07-13T12:01:59;4.22;;;1.00;;
14294;SDS011;7231;59.370;18.016;2023-07-13T12:04:32;4.72;;;1.40;;
14294;SDS011;7231;59.370;18.016;2023-07-13T12:07:05;4.35;;;0.95;;
14294;SDS011;7231;59.370;18.016;2023-07-13T12:09:35;4.20;;;1.00;;
14294;SDS011;7231;59.370;18.016;2023-07-13T12:12:08;3.50;;;1.13;;
14294;SDS011;7231;59.370;18.016;2023-07-13T12:14:39;4.07;;;1.17;;
14294;SDS011;7231;59.370;18.016;2023-07-13T12:17:16;4.60;;;1.17;;
14294;SDS011;7231;59.370;18.016;2023-07-13T12:19:48;2.30;;;1.10;;
14294;SDS011;7231;59.370;18.016;2023-07-13T12:22:19;1.52;;;0.80;;
14294;SDS011;7231;59.370;18.016;2023-07-13T12:24:49;3.80;;;1.05;;
14294;SDS011;7231;59.370;18.016;2023-07-13T12:27:21;5.07;;;1.40;;
14294;SDS011;7231;59.370;18.016;2023-07-13T12:29:52;3.13;;;0.80;;
14294;SDS011;7231;59.370;18.016;2023-07-13T12:32:25;2.58;;;1.00;;
14294;SDS011;7231;59.370;18.016;2023-07-13T12:35:06;8.95;;;1.50;;
14294;SDS011;7231;59.370;18.016;2023-07-13T12:37:41;1.98;;;0.75;;
14294;SDS011;7231;59.370;18.016;2023-07-13T12:40:12;4.45;;;1.05;;
14294;SDS011;7231;59.370;18.016;2023-07-13T12:42:42;2.75;;;1.00;;
14294;SDS011;7231;59.370;18.016;2023-07-13T12:45:12;3.13;;;1.10;;
14294;SDS011;7231;59.370;18.016;2023-07-13T12:47:48;2.65;;;1.10;;
14294;SDS011;7231;59.370;18.016;2023-07-13T12:50:20;3.97;;;1.00;;
14294;SDS011;7231;59.370;18.016;2023-07-13T12:52:50;2.88;;;1.08;;
14294;SDS011;7231;59.370;18.016;2023-07-13T12:55:20;2.28;;;1.23;;
14294;SDS011;7231;59.370;18.016;2023-07-13T12:57:51;3.45;;;1.10;;
14294;SDS011;7231;59.370;18.016;2023-07-13T13:00:23;0.60;;;0.60;;
14294;SDS011;7231;59.370;18.016;2023-07-13T13:02:55;2.78;;;1.10;;
14294;SDS011;7231;59.370;18.016;2023-07-13T13:05:29;3.08;;;1.05;;
14294;SDS011;7231;59.370;18.016;2023-07-13T13:07:58;3.83;;;1.27;;
14294;SDS011;7231;59.370;18.016;2023-07-13T13:10:26;3.38;;;1.05;;
14294;SDS011;7231;59.370;18.016;2023-07-13T13:12:55;2.40;;;0.90;;
14294;SDS011;7231;59.370;18.016;2023-07-13T13:15:24;2.40;;;1.10;;
14294;SDS011;7231;59.370;18.016;2023-07-13T13:17:52;1.92;;;0.95;;
14294;SDS011;7231;59.370;18.016;2023-07-13T13:20:21;3.92;;;0.75;;
14294;SDS011;7231;59.370;18.016;2023-07-13T13:22:51;2.55;;;0.75;;
14294;SDS011;7231;59.370;18.016;2023-07-13T13:25:21;3.53;;;0.80;;
14294;SDS011;7231;59.370;18.016;2023-07-13T13:27:49;4.70;;;0.90;;
14294;SDS011;7231;59.370;18.016;2023-07-13T13:30:18;2.50;;;0.98;;
14294;SDS011;7231;59.370;18.016;2023-07-13T13:32:47;1.27;;;0.82;;
14294;SDS011;7231;59.370;18.016;2023-07-13T13:35:16;2.42;;;1.02;;
14294;SDS011;7231;59.370;18.016;2023-07-13T13:37:47;1.05;;;0.90;;
14294;SDS011;7231;59.370;18.016;2023-07-13T13:40:19;3.42;;;1.15;;
14294;SDS011;7231;59.370;18.016;2023-07-13T13:42:49;1.92;;;0.90;;
14294;SDS011;7231;59.370;18.016;2023-07-13T13:45:20;2.72;;;0.93;;
14294;SDS011;7231;59.370;18.016;2023-07-13T13:47:48;1.08;;;0.90;;
14294;SDS011;7231;59.370;18.016;2023-07-13T13:50:17;2.50;;;1.05;;
14294;SDS011;7231;59.370;18.016;2023-07-13T13:52:48;3.88;;;1.20;;
14294;SDS011;7231;59.370;18.016;2023-07-13T13:55:19;1.70;;;0.90;;
14294;SDS011;7231;59.370;18.016;2023-07-13T13:57:50;2.00;;;1.17;;
14294;SDS011;7231;59.370;18.016;2023-07-13T14:00:20;2.08;;;0.98;;
14294;SDS011;7231;59.370;18.016;2023-07-13T14:02:48;6.95;;;1.33;;
14294;SDS011;7231;59.370;18.016;2023-07-13T14:05:20;2.78;;;1.15;;
14294;SDS011;7231;59.370;18.016;2023-07-13T14:07:50;2.78;;;1.05;;
14294;SDS011;7231;59.370;18.016;2023-07-13T14:10:20;4.20;;;1.02;;
14294;SDS011;7231;59.370;18.016;2023-07-13T14:12:50;2.28;;;0.90;;
14294;SDS011;7231;59.370;18.016;2023-07-13T14:15:21;3.47;;;0.95;;
14294;SDS011;7231;59.370;18.016;2023-07-13T14:17:51;1.08;;;0.90;;
14294;SDS011;7231;59.370;18.016;2023-07-13T14:20:20;2.55;;;0.98;;
14294;SDS011;7231;59.370;18.016;2023-07-13T14:22:50;3.45;;;1.00;;
14294;SDS011;7231;59.370;18.016;2023-07-13T14:25:21;3.35;;;1.33;;
14294;SDS011;7231;59.370;18.016;2023-07-13T14:27:51;2.40;;;0.80;;
14294;SDS011;7231;59.370;18.016;2023-07-13T14:30:25;5.80;;;1.25;;
14294;SDS011;7231;59.370;18.016;2023-07-13T14:32:54;1.88;;;1.00;;
14294;SDS011;7231;59.370;18.016;2023-07-13T14:35:22;3.17;;;1.10;;
14294;SDS011;7231;59.370;18.016;2023-07-13T14:37:51;2.97;;;0.90;;
14294;SDS011;7231;59.370;18.016;2023-07-13T14:40:21;4.97;;;1.15;;
14294;SDS011;7231;59.370;18.016;2023-07-13T14:42:54;3.38;;;1.25;;
14294;SDS011;7231;59.370;18.016;2023-07-13T14:45:22;1.75;;;0.90;;
14294;SDS011;7231;59.370;18.016;2023-07-13T14:47:51;2.42;;;0.93;;
14294;SDS011;7231;59.370;18.016;2023-07-13T14:50:31;2.47;;;0.90;;
14294;SDS011;7231;59.370;18.016;2023-07-13T14:53:02;2.47;;;1.08;;
14294;SDS011;7231;59.370;18.016;2023-07-13T14:55:31;2.70;;;1.02;;
14294;SDS011;7231;59.370;18.016;2023-07-13T14:57:59;3.20;;;1.10;;
14294;SDS011;7231;59.370;18.016;2023-07-13T15:00:28;3.70;;;1.35;;
14294;SDS011;7231;59.370;18.016;2023-07-13T15:02:57;3.00;;;1.15;;
14294;SDS011;7231;59.370;18.016;2023-07-13T15:05:29;1.92;;;1.13;;
14294;SDS011;7231;59.370;18.016;2023-07-13T15:07:59;2.05;;;1.25;;
14294;SDS011;7231;59.370;18.016;2023-07-13T15:10:30;2.63;;;1.33;;
14294;SDS011;7231;59.370;18.016;2023-07-13T15:13:12;3.67;;;1.30;;